createdAt,value
2022-08-02T00:01:18.844Z,101790.13
2022-08-02T00:03:45.463Z,101785.50
2022-08-02T00:06:12.285Z,101794.75
2022-08-02T00:08:38.794Z,101787.63
2022-08-02T00:11:06.049Z,101782.19
2022-08-02T00:13:32.678Z,101781.31
2022-08-02T00:15:59.417Z,101786.38
2022-08-02T00:18:25.934Z,101783.00
2022-08-02T00:20:52.529Z,101781.34
2022-08-02T00:23:19.122Z,101776.31
2022-08-02T00:25:55.095Z,101785.94
2022-08-02T00:28:27.452Z,101780.50
2022-08-02T00:30:55.179Z,101774.63
2022-08-02T00:34:09.137Z,101775.66
2022-08-02T00:36:08.275Z,101780.66
2022-08-02T00:38:35.042Z,101781.50
2022-08-02T00:41:01.922Z,101791.81
2022-08-02T00:43:28.588Z,101787.56
2022-08-02T00:46:02.229Z,101797.56
2022-08-02T00:48:30.638Z,101790.28
2022-08-02T00:50:59.024Z,101800.16
2022-08-02T00:53:25.588Z,101807.66
2022-08-02T00:55:52.188Z,101801.63
2022-08-02T00:58:19.159Z,101804.50
2022-08-02T01:00:45.855Z,101805.09
2022-08-02T01:03:12.394Z,101804.50
2022-08-02T01:06:09.167Z,101812.47
2022-08-02T01:08:29.324Z,101818.13
2022-08-02T01:10:58.476Z,101813.47
2022-08-02T01:13:27.666Z,101798.41
2022-08-02T01:16:02.132Z,101806.41
2022-08-02T01:18:35.300Z,101805.72
2022-08-02T01:21:35.517Z,101807.44
2022-08-02T01:24:42.680Z,101808.59
2022-08-02T01:27:33.925Z,101803.00
2022-08-02T01:30:02.849Z,101797.34
2022-08-02T01:32:37.716Z,101807.22
2022-08-02T01:35:17.531Z,101799.94
2022-08-02T01:38:22.608Z,101801.31
2022-08-02T01:40:51.639Z,101803.84
2022-08-02T01:43:21.429Z,101806.78
2022-08-02T01:45:48.498Z,101814.06
2022-08-02T01:48:16.812Z,101819.97
2022-08-02T01:50:44.991Z,101819.47
2022-08-02T01:53:12.857Z,101829.44
2022-08-02T01:55:57.640Z,101830.38
2022-08-02T01:58:29.963Z,101826.16
2022-08-02T02:00:58.271Z,101824.53
2022-08-02T02:03:26.756Z,101825.38
2022-08-02T02:05:57.686Z,101815.44
2022-08-02T02:08:29.043Z,101816.50
2022-08-02T02:10:57.636Z,101808.56
2022-08-02T02:13:45.286Z,101807.34
2022-08-02T02:16:14.149Z,101814.47
2022-08-02T02:18:43.876Z,101817.97
2022-08-02T02:21:12.275Z,101809.69
2022-08-02T02:23:39.072Z,101807.63
2022-08-02T02:26:11.260Z,101805.47
2022-08-02T02:28:39.883Z,101803.41
2022-08-02T02:31:15.926Z,101795.31
2022-08-02T02:34:10.461Z,101792.34
2022-08-02T02:36:40.086Z,101788.78
2022-08-02T02:39:13.374Z,101791.50
2022-08-02T02:41:42.280Z,101793.81
2022-08-02T02:44:13.385Z,101792.78
2022-08-02T02:46:40.964Z,101785.66
2022-08-02T02:49:11.146Z,101782.63
2022-08-02T02:51:40.737Z,101788.94
2022-08-02T02:54:30.361Z,101785.53
2022-08-02T02:56:58.267Z,101776.00
2022-08-02T02:59:25.205Z,101784.38
2022-08-02T03:01:56.605Z,101784.59
2022-08-02T03:04:25.248Z,101780.41
2022-08-02T03:06:52.017Z,101780.81
2022-08-02T03:09:18.813Z,101771.72
2022-08-02T03:11:46.011Z,101779.22
2022-08-02T03:14:13.528Z,101781.66
2022-08-02T03:16:51.659Z,101779.38
2022-08-02T03:19:19.677Z,101780.09
2022-08-02T03:21:48.461Z,101779.38
2022-08-02T03:24:28.365Z,101770.13
2022-08-02T03:26:55.400Z,101761.78
2022-08-02T03:29:21.942Z,101767.84
2022-08-02T03:31:48.517Z,101758.69
2022-08-02T03:34:15.343Z,101748.81
2022-08-02T03:36:43.347Z,101756.19
2022-08-02T03:39:12.724Z,101759.00
2022-08-02T03:41:39.732Z,101768.59
2022-08-02T03:44:07.885Z,101759.00
2022-08-02T03:46:39.219Z,101757.47
2022-08-02T03:49:08.526Z,101754.13
2022-08-02T03:51:38.129Z,101769.53
2022-08-02T03:54:05.442Z,101756.56
2022-08-02T03:56:32.229Z,101758.91
2022-08-02T03:59:13.300Z,101758.91
2022-08-02T04:01:40.430Z,101763.31
2022-08-02T04:04:07.406Z,101760.25
2022-08-02T04:06:34.674Z,101761.28
2022-08-02T04:09:01.335Z,101773.78
2022-08-02T04:11:33.738Z,101779.44
2022-08-02T04:14:07.699Z,101778.25
2022-08-02T04:16:50.707Z,101784.97
2022-08-02T04:19:21.882Z,101782.25
2022-08-02T04:21:52.555Z,101781.63
2022-08-02T04:24:32.355Z,101779.75
2022-08-02T04:27:19.407Z,101778.91
2022-08-02T04:29:49.613Z,101784.94
2022-08-02T04:32:17.698Z,101779.50
2022-08-02T04:35:05.043Z,101783.56
2022-08-02T04:37:32.587Z,101776.63
2022-08-02T04:39:59.147Z,101782.66
2022-08-02T04:42:26.817Z,101782.44
2022-08-02T04:44:53.822Z,101781.41
2022-08-02T04:47:40.013Z,101786.03
2022-08-02T04:50:08.654Z,101784.16
2022-08-02T04:52:35.140Z,101772.50
2022-08-02T04:55:01.775Z,101777.53
2022-08-02T04:57:52.722Z,101769.00
2022-08-02T05:00:20.037Z,101773.41
2022-08-02T05:02:47.275Z,101780.94
2022-08-02T05:05:14.059Z,101774.75
2022-08-02T05:07:40.707Z,101775.22
2022-08-02T05:10:07.556Z,101779.78
2022-08-02T05:12:34.187Z,101780.00
2022-08-02T05:15:00.886Z,101773.97
2022-08-02T05:17:27.459Z,101780.28
2022-08-02T05:19:53.999Z,101777.75
2022-08-02T05:22:20.516Z,101783.84
2022-08-02T05:24:47.139Z,101787.84
2022-08-02T05:27:16.497Z,101785.91
2022-08-02T05:29:53.001Z,101791.56
2022-08-02T05:32:20.928Z,101786.91
2022-08-02T05:34:50.482Z,101779.53
2022-08-02T05:37:17.264Z,101774.44
2022-08-02T05:39:55.862Z,101780.72
2022-08-02T05:42:23.731Z,101778.56
2022-08-02T05:44:50.423Z,101774.91
2022-08-02T05:47:17.110Z,101782.38
2022-08-02T05:49:43.799Z,101784.38
2022-08-02T05:52:18.771Z,101787.63
2022-08-02T05:55:10.206Z,101793.44
2022-08-02T05:58:00.616Z,101787.34
2022-08-02T06:00:31.623Z,101787.75
2022-08-02T06:03:16.985Z,101780.50
2022-08-02T06:05:52.356Z,101777.81
2022-08-02T06:08:20.914Z,101775.38
2022-08-02T06:10:48.654Z,101772.88
2022-08-02T06:13:16.874Z,101779.25
2022-08-02T06:15:53.319Z,101789.84
2022-08-02T06:18:28.373Z,101798.50
2022-08-02T06:22:32.371Z,101802.84
2022-08-02T06:23:57.692Z,101797.19
2022-08-02T06:26:27.333Z,101806.19
2022-08-02T06:28:55.448Z,101799.50
2022-08-02T06:31:22.154Z,101789.59
2022-08-02T06:33:48.696Z,101790.94
2022-08-02T06:36:50.769Z,101794.66
2022-08-02T06:39:28.488Z,101787.09
2022-08-02T06:42:02.894Z,101774.56
2022-08-02T06:44:48.743Z,101765.72
2022-08-02T06:47:16.813Z,101766.06
2022-08-02T06:49:52.510Z,101760.78
2022-08-02T06:52:30.979Z,101763.03
2022-08-02T06:55:03.272Z,101757.50
2022-08-02T06:57:30.728Z,101757.00
2022-08-02T06:59:58.619Z,101762.34
2022-08-02T07:02:25.406Z,101762.47
2022-08-02T07:04:52.014Z,101763.97
2022-08-02T07:07:18.806Z,101770.56
2022-08-02T07:10:00.035Z,101774.91
2022-08-02T07:12:30.667Z,101768.09
2022-08-02T07:14:58.690Z,101760.56
2022-08-02T07:17:25.552Z,101769.75
2022-08-02T07:19:52.058Z,101769.59
2022-08-02T07:22:24.312Z,101770.88
2022-08-02T07:24:51.466Z,101772.03
2022-08-02T07:27:18.439Z,101773.38
2022-08-02T07:29:47.144Z,101780.66
2022-08-02T07:32:18.814Z,101775.78
2022-08-02T07:34:50.929Z,101763.56
2022-08-02T07:37:35.427Z,101761.50
2022-08-02T07:40:11.887Z,101764.19
2022-08-02T07:42:40.439Z,101770.97
2022-08-02T07:45:07.256Z,101770.66
2022-08-02T07:47:37.917Z,101771.97
2022-08-02T07:50:06.302Z,101769.66
2022-08-02T07:52:33.024Z,101756.63
2022-08-02T07:54:59.562Z,101749.00
2022-08-02T07:57:26.062Z,101742.41
2022-08-02T07:59:52.732Z,101741.53
2022-08-02T08:02:19.218Z,101741.00
2022-08-02T08:04:45.784Z,101738.50
2022-08-02T08:07:12.272Z,101736.22
2022-08-02T08:09:42.253Z,101712.53
2022-08-02T08:12:10.768Z,101713.41
2022-08-02T08:14:38.693Z,101717.41
2022-08-02T08:17:08.546Z,101714.75
2022-08-02T08:19:50.958Z,101717.53
2022-08-02T08:22:21.527Z,101722.31
2022-08-02T08:24:49.131Z,101722.59
2022-08-02T08:27:16.907Z,101718.84
2022-08-02T08:29:44.219Z,101702.00
2022-08-02T08:32:17.077Z,101705.63
2022-08-02T08:34:45.153Z,101701.25
2022-08-02T08:37:17.865Z,101704.38
2022-08-02T08:39:56.454Z,101702.44
2022-08-02T08:42:24.390Z,101694.97
2022-08-02T08:44:51.571Z,101697.75
2022-08-02T08:47:21.148Z,101705.78
2022-08-02T08:49:53.039Z,101704.69
2022-08-02T08:52:23.804Z,101701.09
2022-08-02T08:54:51.363Z,101708.59
2022-08-02T08:57:20.280Z,101718.00
2022-08-02T08:59:46.958Z,101713.31
2022-08-02T09:02:20.404Z,101705.56
2022-08-02T09:04:54.433Z,101702.53
2022-08-02T09:07:28.238Z,101701.38
2022-08-02T09:09:55.901Z,101708.31
2022-08-02T09:12:24.766Z,101698.91
2022-08-02T09:14:51.468Z,101692.00
2022-08-02T09:17:18.683Z,101687.28
2022-08-02T09:19:47.904Z,101678.13
2022-08-02T09:22:15.841Z,101680.88
2022-08-02T09:24:44.800Z,101681.72
2022-08-02T09:27:22.821Z,101681.97
2022-08-02T09:30:13.422Z,101684.44
2022-08-02T09:32:48.374Z,101694.69
2022-08-02T09:36:06.795Z,101685.25
2022-08-02T09:38:18.635Z,101686.88
2022-08-02T09:40:45.313Z,101684.88
2022-08-02T09:43:12.427Z,101686.78
2022-08-02T09:45:39.073Z,101698.91
2022-08-02T09:48:09.585Z,101678.31
2022-08-02T09:50:37.413Z,101673.06
2022-08-02T09:53:04.746Z,101680.16
2022-08-02T09:55:31.333Z,101686.28
2022-08-02T09:57:58.073Z,101676.84
2022-08-02T10:00:43.585Z,101690.84
2022-08-02T10:03:22.378Z,101688.56
2022-08-02T10:05:56.126Z,101682.44
2022-08-02T10:08:29.434Z,101684.16
2022-08-02T10:11:03.567Z,101687.16
2022-08-02T10:13:35.521Z,101686.00
2022-08-02T10:16:04.443Z,101678.66
2022-08-02T10:18:40.369Z,101684.16
2022-08-02T10:21:13.406Z,101684.84
2022-08-02T10:23:42.437Z,101680.72
2022-08-02T10:26:09.601Z,101676.16
2022-08-02T10:28:37.755Z,101681.22
2022-08-02T10:31:07.605Z,101672.97
2022-08-02T10:33:38.206Z,101671.66
2022-08-02T10:36:07.383Z,101671.91
2022-08-02T10:38:35.415Z,101671.03
2022-08-02T10:41:01.940Z,101661.38
2022-08-02T10:43:31.531Z,101661.84
2022-08-02T10:46:22.700Z,101653.44
2022-08-02T10:49:36.232Z,101643.41
2022-08-02T10:52:01.091Z,101642.88
2022-08-02T10:54:32.112Z,101643.03
2022-08-02T10:57:01.513Z,101635.53
2022-08-02T10:59:28.210Z,101637.09
2022-08-02T11:02:02.560Z,101641.34
2022-08-02T11:04:52.029Z,101633.38
2022-08-02T11:07:36.540Z,101631.03
2022-08-02T11:10:30.208Z,101630.66
2022-08-02T11:13:15.169Z,101628.69
2022-08-02T11:15:49.582Z,101622.75
2022-08-02T11:18:16.743Z,101622.63
2022-08-02T11:20:43.481Z,101618.94
2022-08-02T11:23:44.299Z,101623.84
2022-08-02T11:26:30.819Z,101629.38
2022-08-02T11:29:02.566Z,101622.59
2022-08-02T11:31:38.023Z,101615.13
2022-08-02T11:34:09.594Z,101616.25
2022-08-02T11:36:50.969Z,101616.50
2022-08-02T11:39:19.938Z,101620.63
2022-08-02T11:41:51.526Z,101608.31
2022-08-02T11:44:19.536Z,101602.06
2022-08-02T11:46:59.125Z,101606.97
2022-08-02T11:49:26.231Z,101599.34
2022-08-02T11:52:07.430Z,101606.50
2022-08-02T11:54:36.530Z,101606.44
2022-08-02T11:57:21.273Z,101604.03
2022-08-02T11:59:50.119Z,101599.06
2022-08-02T12:02:18.743Z,101590.34
2022-08-02T12:04:53.190Z,101591.28
2022-08-02T12:07:45.976Z,101587.34
2022-08-02T12:10:16.931Z,101585.13
2022-08-02T12:12:57.668Z,101583.22
2022-08-02T12:15:31.183Z,101579.94
2022-08-02T12:18:16.810Z,101585.41
2022-08-02T12:20:45.391Z,101574.25
2022-08-02T12:23:13.263Z,101569.06
2022-08-02T12:25:39.974Z,101570.56
2022-08-02T12:28:22.570Z,101558.78
2022-08-02T12:31:00.646Z,101562.56
2022-08-02T12:33:29.492Z,101559.72
2022-08-02T12:35:56.555Z,101559.47
2022-08-02T12:38:23.085Z,101561.84
2022-08-02T12:40:49.658Z,101549.97
2022-08-02T12:43:19.350Z,101546.97
2022-08-02T12:45:50.660Z,101549.88
2022-08-02T12:48:37.430Z,101548.19
2022-08-02T12:51:18.670Z,101551.25
2022-08-02T12:53:45.202Z,101561.09
2022-08-02T12:56:11.809Z,101554.97
2022-08-02T12:58:51.829Z,101547.03
2022-08-02T13:01:27.697Z,101552.31
2022-08-02T13:04:07.609Z,101555.03
2022-08-02T13:06:43.886Z,101551.78
2022-08-02T13:09:16.120Z,101545.94
2022-08-02T13:11:44.106Z,101555.31
2022-08-02T13:14:12.355Z,101547.78
2022-08-02T13:16:38.964Z,101542.72
2022-08-02T13:19:05.531Z,101545.91
2022-08-02T13:21:41.071Z,101546.56
2022-08-02T13:24:37.738Z,101544.06
2022-08-02T13:27:08.647Z,101539.97
2022-08-02T13:29:37.107Z,101533.69
2022-08-02T13:32:03.803Z,101538.06
2022-08-02T13:34:30.364Z,101531.97
2022-08-02T13:36:56.910Z,101531.69
2022-08-02T13:39:23.418Z,101522.81
2022-08-02T13:41:49.978Z,101533.34
2022-08-02T13:44:16.501Z,101524.31
2022-08-02T13:46:45.547Z,101512.00
2022-08-02T13:49:18.506Z,101517.09
2022-08-02T13:51:47.002Z,101507.56
2022-08-02T13:54:13.511Z,101506.88
2022-08-02T13:56:40.003Z,101503.09
2022-08-02T13:59:54.898Z,101506.38
2022-08-02T14:01:54.273Z,101506.22
2022-08-02T14:04:20.906Z,101502.44
2022-08-02T14:06:47.421Z,101497.19
2022-08-02T14:09:16.824Z,101501.78
2022-08-02T14:11:44.270Z,101496.88
2022-08-02T14:14:16.719Z,101492.25
2022-08-02T14:16:45.654Z,101495.53
2022-08-02T14:19:16.679Z,101488.81
2022-08-02T14:21:47.951Z,101486.69
2022-08-02T14:24:16.550Z,101486.34
2022-08-02T14:26:43.474Z,101483.53
2022-08-02T14:29:09.990Z,101480.94
2022-08-02T14:31:41.640Z,101482.25
2022-08-02T14:34:10.782Z,101487.03
2022-08-02T14:36:38.273Z,101475.66
2022-08-02T14:39:04.846Z,101482.41
2022-08-02T14:41:33.968Z,101471.72
2022-08-02T14:44:20.468Z,101485.03
2022-08-02T14:46:47.024Z,101485.03
2022-08-02T14:49:14.632Z,101483.06
2022-08-02T14:51:50.768Z,101473.53
2022-08-02T14:54:18.217Z,101474.69
2022-08-02T14:56:45.011Z,101458.06
2022-08-02T14:59:14.769Z,101469.41
2022-08-02T15:01:41.831Z,101458.69
2022-08-02T15:04:08.395Z,101456.91
2022-08-02T15:06:34.979Z,101449.81
2022-08-02T15:09:01.559Z,101457.53
2022-08-02T15:11:28.239Z,101447.69
2022-08-02T15:13:55.179Z,101432.06
2022-08-02T15:16:47.329Z,101437.34
2022-08-02T15:19:12.751Z,101427.66
2022-08-02T15:21:42.137Z,101431.09
2022-08-02T15:24:21.339Z,101426.63
2022-08-02T15:26:50.213Z,101437.69
2022-08-02T15:29:18.043Z,101436.34
2022-08-02T15:31:44.620Z,101425.75
2022-08-02T15:34:11.242Z,101426.72
2022-08-02T15:36:38.046Z,101431.59
2022-08-02T15:39:04.749Z,101428.63
2022-08-02T15:41:31.648Z,101425.34
2022-08-02T15:44:00.794Z,101427.28
2022-08-02T15:46:31.097Z,101428.94
2022-08-02T15:48:59.656Z,101427.19
2022-08-02T15:51:26.773Z,101419.94
2022-08-02T15:53:53.272Z,101418.31
2022-08-02T15:56:22.032Z,101419.19
2022-08-02T15:58:53.031Z,101411.59
2022-08-02T16:01:25.817Z,101407.28
2022-08-02T16:04:04.740Z,101413.53
2022-08-02T16:06:31.248Z,101410.72
2022-08-02T16:08:57.782Z,101408.91
2022-08-02T16:11:24.297Z,101410.25
2022-08-02T16:13:53.339Z,101399.88
2022-08-02T16:16:22.330Z,101402.38
2022-08-02T16:18:48.912Z,101400.94
2022-08-02T16:21:15.491Z,101399.59
2022-08-02T16:23:59.243Z,101402.56
2022-08-02T16:26:30.574Z,101391.34
2022-08-02T16:28:59.495Z,101395.59
2022-08-02T16:31:26.209Z,101396.13
2022-08-02T16:33:56.739Z,101387.34
2022-08-02T16:36:24.297Z,101389.22
2022-08-02T16:38:50.887Z,101389.16
2022-08-02T16:41:17.405Z,101384.97
2022-08-02T16:43:43.932Z,101380.66
2022-08-02T16:46:10.454Z,101389.56
2022-08-02T16:48:37.335Z,101381.63
2022-08-02T16:51:04.608Z,101378.47
2022-08-02T16:53:37.066Z,101380.06
2022-08-02T16:56:05.080Z,101379.44
2022-08-02T16:58:31.627Z,101373.38
2022-08-02T17:00:58.218Z,101371.94
2022-08-02T17:03:24.773Z,101365.13
2022-08-02T17:06:11.238Z,101371.72
2022-08-02T17:08:54.529Z,101367.28
2022-08-02T17:11:21.513Z,101366.88
2022-08-02T17:13:50.965Z,101367.59
2022-08-02T17:16:20.434Z,101362.34
2022-08-02T17:18:53.172Z,101365.50
2022-08-02T17:21:19.945Z,101371.28
2022-08-02T17:24:06.073Z,101371.38
2022-08-02T17:26:33.266Z,101368.34
2022-08-02T17:29:17.735Z,101372.91
2022-08-02T17:32:12.410Z,101364.66
2022-08-02T17:34:36.760Z,101368.22
2022-08-02T17:37:05.618Z,101371.38
2022-08-02T17:39:34.514Z,101363.78
2022-08-02T17:42:10.884Z,101362.13
2022-08-02T17:44:42.147Z,101355.31
2022-08-02T17:47:15.609Z,101359.66
2022-08-02T17:49:48.438Z,101355.81
2022-08-02T17:52:50.790Z,101355.13
2022-08-02T17:55:03.760Z,101361.03
2022-08-02T17:57:57.792Z,101356.47
2022-08-02T18:00:17.743Z,101354.63
2022-08-02T18:02:52.901Z,101359.88
2022-08-02T18:05:39.686Z,101365.34
2022-08-02T18:08:13.207Z,101360.22
2022-08-02T18:10:40.797Z,101367.84
2022-08-02T18:13:07.300Z,101366.78
2022-08-02T18:15:34.270Z,101362.50
2022-08-02T18:18:00.950Z,101359.81
2022-08-02T18:20:27.509Z,101360.72
2022-08-02T18:22:58.331Z,101356.59
2022-08-02T18:25:37.527Z,101364.41
2022-08-02T18:28:12.597Z,101367.88
2022-08-02T18:30:39.473Z,101362.44
2022-08-02T18:33:59.213Z,101371.19
2022-08-02T18:35:55.340Z,101374.63
2022-08-02T18:38:22.765Z,101375.56
2022-08-02T18:40:51.201Z,101368.97
2022-08-02T18:43:18.809Z,101371.63
2022-08-02T18:46:05.671Z,101373.66
2022-08-02T18:48:35.463Z,101367.44
2022-08-02T18:51:02.897Z,101364.84
2022-08-02T18:53:41.545Z,101364.13
2022-08-02T18:56:19.582Z,101373.69
2022-08-02T18:58:51.883Z,101375.50
2022-08-02T19:01:31.667Z,101369.50
2022-08-02T19:04:01.390Z,101378.50
2022-08-02T19:06:29.080Z,101378.84
2022-08-02T19:09:05.098Z,101375.34
2022-08-02T19:11:37.172Z,101373.16
2022-08-02T19:14:03.748Z,101377.56
2022-08-02T19:16:36.712Z,101384.59
2022-08-02T19:19:05.085Z,101384.16
2022-08-02T19:22:17.354Z,101382.03
2022-08-02T19:24:18.370Z,101384.44
2022-08-02T19:29:48.160Z,101380.94
2022-08-02T19:32:39.847Z,101381.34
2022-08-02T19:35:19.815Z,101377.00
2022-08-02T19:40:42.273Z,101386.34
2022-08-02T19:44:25.847Z,101384.09
2022-08-02T19:45:58.460Z,101385.03
2022-08-02T19:48:26.775Z,101381.84
2022-08-02T19:50:56.134Z,101390.25
2022-08-02T19:53:48.538Z,101391.13
2022-08-02T19:56:20.625Z,101388.91
2022-08-02T19:58:49.419Z,101390.31
2022-08-02T20:01:17.307Z,101390.63
2022-08-02T20:03:51.097Z,101400.34
2022-08-02T20:06:19.754Z,101394.88
2022-08-02T20:08:57.083Z,101399.06
2022-08-02T20:11:25.437Z,101397.13
2022-08-02T20:13:53.457Z,101399.34
2022-08-02T20:16:27.400Z,101399.66
2022-08-02T20:18:55.238Z,101399.97
2022-08-02T20:21:35.919Z,101396.94
2022-08-02T20:24:07.740Z,101397.50
2022-08-02T20:26:35.146Z,101396.41
2022-08-02T20:29:03.366Z,101391.16
2022-08-02T20:31:30.384Z,101395.03
2022-08-02T20:33:57.510Z,101401.41
2022-08-02T20:36:25.728Z,101402.84
2022-08-02T20:38:54.520Z,101393.44
2022-08-02T20:41:22.255Z,101391.78
2022-08-02T20:43:49.736Z,101399.00
2022-08-02T20:46:16.431Z,101397.97
2022-08-02T20:48:44.235Z,101388.28
2022-08-02T20:51:14.143Z,101386.91
2022-08-02T20:53:54.860Z,101379.72
2022-08-02T20:56:23.138Z,101383.38
2022-08-02T20:58:52.389Z,101383.13
2022-08-02T21:01:21.196Z,101380.97
2022-08-02T21:03:53.002Z,101385.66
2022-08-02T21:06:29.883Z,101377.63
2022-08-02T21:08:58.726Z,101384.59
2022-08-02T21:11:33.763Z,101384.63
2022-08-02T21:14:06.938Z,101381.59
2022-08-02T21:16:36.163Z,101383.00
2022-08-02T21:19:02.923Z,101376.97
2022-08-02T21:21:34.727Z,101379.72
2022-08-02T21:24:01.810Z,101375.84
2022-08-02T21:26:30.610Z,101379.22
2022-08-02T21:29:03.299Z,101372.28
2022-08-02T21:31:32.084Z,101379.78
2022-08-02T21:34:00.847Z,101379.47
2022-08-02T21:36:33.842Z,101375.06
2022-08-02T21:39:08.983Z,101382.81
2022-08-02T21:41:39.208Z,101378.41
2022-08-02T21:44:15.991Z,101375.69
2022-08-02T21:46:44.578Z,101379.06
2022-08-02T21:49:12.534Z,101371.63
2022-08-02T21:51:40.255Z,101377.44
2022-08-02T21:54:17.508Z,101370.25
2022-08-02T21:56:45.939Z,101373.59
2022-08-02T21:59:16.249Z,101375.25
2022-08-02T22:01:52.317Z,101384.38
2022-08-02T22:04:20.522Z,101378.59
2022-08-02T22:06:49.146Z,101379.16
2022-08-02T22:09:43.228Z,101379.75
2022-08-02T22:12:10.073Z,101378.91
2022-08-02T22:14:39.868Z,101382.22
2022-08-02T22:19:54.692Z,101378.91
2022-08-02T22:22:28.403Z,101379.47
2022-08-02T22:24:56.791Z,101373.69
2022-08-02T22:27:24.196Z,101376.22
2022-08-02T22:30:11.248Z,101376.84
2022-08-02T22:32:56.354Z,101379.94
2022-08-02T22:35:22.991Z,101378.88
2022-08-02T22:38:16.956Z,101380.84
2022-08-02T22:40:36.081Z,101377.25
2022-08-02T22:43:02.611Z,101382.78
2022-08-02T22:45:29.400Z,101375.28
2022-08-02T22:47:58.690Z,101385.84
2022-08-02T22:50:27.033Z,101387.22
2022-08-02T22:52:54.037Z,101381.69
2022-08-02T22:55:21.481Z,101380.28
2022-08-02T22:57:50.597Z,101383.88
2022-08-02T22:58:48.002Z,101383.75
2022-08-02T22:59:04.484Z,101381.41
2022-08-02T22:59:06.568Z,101380.34
2022-08-02T23:00:24.230Z,101381.09
2022-08-02T23:02:50.977Z,101384.97
2022-08-02T23:05:18.205Z,101390.50
2022-08-02T23:07:44.692Z,101381.09
2022-08-02T23:10:11.226Z,101380.28
2022-08-02T23:12:37.773Z,101380.53
2022-08-02T23:15:04.765Z,101378.31
2022-08-02T23:17:49.635Z,101376.34
2022-08-02T23:20:19.746Z,101374.44
2022-08-02T23:22:46.271Z,101370.56
2022-08-02T23:25:12.784Z,101368.31
2022-08-02T23:27:39.534Z,101367.50
2022-08-02T23:30:16.952Z,101360.59
2022-08-02T23:32:43.454Z,101366.44
2022-08-02T23:35:10.175Z,101364.75
2022-08-02T23:37:59.943Z,101369.72
2022-08-02T23:40:40.482Z,101366.66
2022-08-02T23:43:13.866Z,101365.31
2022-08-02T23:45:44.390Z,101370.03
2022-08-02T23:48:10.910Z,101372.25
2022-08-02T23:50:37.470Z,101363.69
2022-08-02T23:53:03.985Z,101363.16
2022-08-02T23:55:30.538Z,101360.41
2022-08-02T23:57:57.038Z,101363.50
